sensor_id;sensor_type;location;lat;lon;timestamp;P1;durP1;ratioP1;P2;durP2;ratioP2
297;SDS011;133;49.626;9.680;2022-07-19T00:01:19;3.50;;;3.00;;
297;SDS011;133;49.626;9.680;2022-07-19T00:03:45;3.90;;;3.03;;
297;SDS011;133;49.626;9.680;2022-07-19T00:06:10;6.20;;;3.20;;
297;SDS011;133;49.626;9.680;2022-07-19T00:08:36;4.50;;;3.30;;
297;SDS011;133;49.626;9.680;2022-07-19T00:11:02;3.17;;;3.00;;
297;SDS011;133;49.626;9.680;2022-07-19T00:13:27;5.30;;;2.90;;
297;SDS011;133;49.626;9.680;2022-07-19T00:15:53;4.17;;;2.90;;
297;SDS011;133;49.626;9.680;2022-07-19T00:18:19;10.10;;;3.40;;
297;SDS011;133;49.626;9.680;2022-07-19T00:20:45;7.40;;;2.90;;
297;SDS011;133;49.626;9.680;2022-07-19T00:23:10;5.10;;;3.13;;
297;SDS011;133;49.626;9.680;2022-07-19T00:25:36;4.07;;;3.17;;
297;SDS011;133;49.626;9.680;2022-07-19T00:28:02;4.50;;;3.00;;
297;SDS011;133;49.626;9.680;2022-07-19T00:30:27;4.80;;;3.00;;
297;SDS011;133;49.626;9.680;2022-07-19T00:32:53;4.00;;;2.90;;
297;SDS011;133;49.626;9.680;2022-07-19T00:35:19;7.13;;;3.17;;
297;SDS011;133;49.626;9.680;2022-07-19T00:37:45;7.03;;;3.13;;
297;SDS011;133;49.626;9.680;2022-07-19T00:40:10;4.73;;;3.10;;
297;SDS011;133;49.626;9.680;2022-07-19T00:42:36;5.00;;;3.30;;
297;SDS011;133;49.626;9.680;2022-07-19T00:45:03;4.73;;;3.37;;
297;SDS011;133;49.626;9.680;2022-07-19T00:47:30;3.57;;;3.00;;
297;SDS011;133;49.626;9.680;2022-07-19T00:49:55;8.53;;;3.60;;
297;SDS011;133;49.626;9.680;2022-07-19T00:52:21;6.17;;;3.57;;
297;SDS011;133;49.626;9.680;2022-07-19T00:54:49;5.63;;;3.50;;
297;SDS011;133;49.626;9.680;2022-07-19T00:57:17;4.57;;;3.20;;
297;SDS011;133;49.626;9.680;2022-07-19T00:59:43;3.13;;;2.93;;
297;SDS011;133;49.626;9.680;2022-07-19T01:02:12;5.40;;;3.27;;
297;SDS011;133;49.626;9.680;2022-07-19T01:04:37;5.60;;;3.40;;
297;SDS011;133;49.626;9.680;2022-07-19T01:07:03;4.00;;;3.20;;
297;SDS011;133;49.626;9.680;2022-07-19T01:09:29;5.80;;;3.27;;
297;SDS011;133;49.626;9.680;2022-07-19T01:11:54;6.53;;;3.37;;
297;SDS011;133;49.626;9.680;2022-07-19T01:14:22;12.33;;;3.20;;
297;SDS011;133;49.626;9.680;2022-07-19T01:16:47;5.37;;;3.43;;
297;SDS011;133;49.626;9.680;2022-07-19T01:19:13;4.73;;;3.20;;
297;SDS011;133;49.626;9.680;2022-07-19T01:21:39;4.90;;;3.10;;
297;SDS011;133;49.626;9.680;2022-07-19T01:24:05;10.90;;;3.70;;
297;SDS011;133;49.626;9.680;2022-07-19T01:26:31;5.13;;;3.30;;
297;SDS011;133;49.626;9.680;2022-07-19T01:28:57;8.20;;;3.37;;
297;SDS011;133;49.626;9.680;2022-07-19T01:31:22;3.97;;;3.03;;
297;SDS011;133;49.626;9.680;2022-07-19T01:33:48;8.20;;;3.37;;
297;SDS011;133;49.626;9.680;2022-07-19T01:36:13;6.93;;;3.27;;
297;SDS011;133;49.626;9.680;2022-07-19T01:38:39;4.90;;;2.93;;
297;SDS011;133;49.626;9.680;2022-07-19T01:41:06;4.93;;;3.40;;
297;SDS011;133;49.626;9.680;2022-07-19T01:43:32;4.60;;;3.30;;
297;SDS011;133;49.626;9.680;2022-07-19T01:45:58;5.00;;;2.87;;
297;SDS011;133;49.626;9.680;2022-07-19T01:48:24;7.40;;;3.93;;
297;SDS011;133;49.626;9.680;2022-07-19T01:50:50;5.23;;;3.10;;
297;SDS011;133;49.626;9.680;2022-07-19T01:53:16;3.73;;;3.20;;
297;SDS011;133;49.626;9.680;2022-07-19T01:55:41;8.60;;;3.70;;
297;SDS011;133;49.626;9.680;2022-07-19T01:58:07;5.70;;;3.53;;
297;SDS011;133;49.626;9.680;2022-07-19T02:00:33;6.50;;;3.23;;
297;SDS011;133;49.626;9.680;2022-07-19T02:02:58;6.23;;;3.43;;
297;SDS011;133;49.626;9.680;2022-07-19T02:05:24;4.90;;;3.03;;
297;SDS011;133;49.626;9.680;2022-07-19T02:07:49;7.93;;;3.67;;
297;SDS011;133;49.626;9.680;2022-07-19T02:10:16;4.20;;;3.37;;
297;SDS011;133;49.626;9.680;2022-07-19T02:12:42;3.60;;;3.10;;
297;SDS011;133;49.626;9.680;2022-07-19T02:15:08;5.60;;;3.20;;
297;SDS011;133;49.626;9.680;2022-07-19T02:17:34;5.90;;;3.00;;
297;SDS011;133;49.626;9.680;2022-07-19T02:20:00;5.67;;;3.00;;
297;SDS011;133;49.626;9.680;2022-07-19T02:22:26;7.93;;;3.37;;
297;SDS011;133;49.626;9.680;2022-07-19T02:24:51;4.50;;;3.50;;
297;SDS011;133;49.626;9.680;2022-07-19T02:27:17;6.63;;;3.43;;
297;SDS011;133;49.626;9.680;2022-07-19T02:29:43;5.03;;;3.00;;
297;SDS011;133;49.626;9.680;2022-07-19T02:32:08;5.13;;;3.30;;
297;SDS011;133;49.626;9.680;2022-07-19T02:34:34;6.70;;;4.20;;
297;SDS011;133;49.626;9.680;2022-07-19T02:37:00;6.67;;;3.60;;
297;SDS011;133;49.626;9.680;2022-07-19T02:39:26;8.90;;;3.03;;
297;SDS011;133;49.626;9.680;2022-07-19T02:41:52;4.10;;;3.07;;
297;SDS011;133;49.626;9.680;2022-07-19T02:44:18;6.67;;;3.20;;
297;SDS011;133;49.626;9.680;2022-07-19T02:46:43;5.47;;;3.20;;
297;SDS011;133;49.626;9.680;2022-07-19T02:49:09;4.90;;;3.30;;
297;SDS011;133;49.626;9.680;2022-07-19T02:51:35;4.30;;;3.20;;
297;SDS011;133;49.626;9.680;2022-07-19T02:54:00;3.90;;;3.33;;
297;SDS011;133;49.626;9.680;2022-07-19T02:56:26;6.30;;;3.30;;
297;SDS011;133;49.626;9.680;2022-07-19T02:58:51;3.87;;;2.93;;
297;SDS011;133;49.626;9.680;2022-07-19T03:01:17;5.30;;;3.97;;
297;SDS011;133;49.626;9.680;2022-07-19T03:03:43;3.57;;;3.23;;
297;SDS011;133;49.626;9.680;2022-07-19T03:06:08;4.90;;;3.07;;
297;SDS011;133;49.626;9.680;2022-07-19T03:08:34;5.53;;;3.60;;
297;SDS011;133;49.626;9.680;2022-07-19T03:11:00;5.23;;;3.67;;
297;SDS011;133;49.626;9.680;2022-07-19T03:13:25;4.17;;;3.43;;
297;SDS011;133;49.626;9.680;2022-07-19T03:15:51;5.90;;;3.30;;
297;SDS011;133;49.626;9.680;2022-07-19T03:18:17;6.17;;;3.57;;
297;SDS011;133;49.626;9.680;2022-07-19T03:20:42;7.50;;;3.30;;
297;SDS011;133;49.626;9.680;2022-07-19T03:23:08;6.17;;;3.43;;
297;SDS011;133;49.626;9.680;2022-07-19T03:25:33;4.90;;;3.50;;
297;SDS011;133;49.626;9.680;2022-07-19T03:27:59;7.40;;;3.37;;
297;SDS011;133;49.626;9.680;2022-07-19T03:30:24;4.40;;;3.60;;
297;SDS011;133;49.626;9.680;2022-07-19T03:32:51;6.57;;;4.00;;
297;SDS011;133;49.626;9.680;2022-07-19T03:35:18;6.63;;;3.63;;
297;SDS011;133;49.626;9.680;2022-07-19T03:37:46;9.30;;;3.83;;
297;SDS011;133;49.626;9.680;2022-07-19T03:40:12;6.73;;;3.90;;
297;SDS011;133;49.626;9.680;2022-07-19T03:42:38;4.20;;;3.40;;
297;SDS011;133;49.626;9.680;2022-07-19T03:45:04;5.30;;;3.90;;
297;SDS011;133;49.626;9.680;2022-07-19T03:47:30;5.53;;;3.30;;
297;SDS011;133;49.626;9.680;2022-07-19T03:49:56;9.13;;;3.50;;
297;SDS011;133;49.626;9.680;2022-07-19T03:52:22;6.47;;;3.43;;
297;SDS011;133;49.626;9.680;2022-07-19T03:54:48;4.20;;;3.83;;
297;SDS011;133;49.626;9.680;2022-07-19T03:57:14;4.27;;;4.03;;
297;SDS011;133;49.626;9.680;2022-07-19T03:59:39;6.97;;;3.77;;
297;SDS011;133;49.626;9.680;2022-07-19T04:02:05;6.63;;;3.53;;
297;SDS011;133;49.626;9.680;2022-07-19T04:04:31;4.00;;;3.53;;
297;SDS011;133;49.626;9.680;2022-07-19T04:06:57;8.00;;;4.80;;
297;SDS011;133;49.626;9.680;2022-07-19T04:09:22;6.07;;;3.90;;
297;SDS011;133;49.626;9.680;2022-07-19T04:11:48;4.70;;;3.63;;
297;SDS011;133;49.626;9.680;2022-07-19T04:14:14;5.10;;;3.20;;
297;SDS011;133;49.626;9.680;2022-07-19T04:16:39;5.30;;;4.00;;
297;SDS011;133;49.626;9.680;2022-07-19T04:19:05;6.17;;;3.70;;
297;SDS011;133;49.626;9.680;2022-07-19T04:21:31;4.10;;;3.73;;
297;SDS011;133;49.626;9.680;2022-07-19T04:23:57;5.77;;;3.60;;
297;SDS011;133;49.626;9.680;2022-07-19T04:26:22;5.70;;;3.90;;
297;SDS011;133;49.626;9.680;2022-07-19T04:28:48;15.20;;;3.57;;
297;SDS011;133;49.626;9.680;2022-07-19T04:31:14;6.07;;;3.80;;
297;SDS011;133;49.626;9.680;2022-07-19T04:33:40;5.30;;;3.77;;
297;SDS011;133;49.626;9.680;2022-07-19T04:36:06;4.40;;;3.30;;
297;SDS011;133;49.626;9.680;2022-07-19T04:38:31;6.60;;;3.77;;
297;SDS011;133;49.626;9.680;2022-07-19T04:40:57;7.67;;;3.63;;
297;SDS011;133;49.626;9.680;2022-07-19T04:43:23;7.87;;;3.90;;
297;SDS011;133;49.626;9.680;2022-07-19T04:45:48;7.47;;;3.60;;
297;SDS011;133;49.626;9.680;2022-07-19T04:48:14;5.93;;;3.70;;
297;SDS011;133;49.626;9.680;2022-07-19T04:50:40;10.20;;;4.30;;
297;SDS011;133;49.626;9.680;2022-07-19T04:53:06;7.00;;;3.60;;
297;SDS011;133;49.626;9.680;2022-07-19T04:55:32;6.73;;;3.80;;
297;SDS011;133;49.626;9.680;2022-07-19T04:57:58;10.33;;;4.03;;
297;SDS011;133;49.626;9.680;2022-07-19T05:00:24;7.90;;;3.17;;
297;SDS011;133;49.626;9.680;2022-07-19T05:02:50;7.00;;;3.80;;
297;SDS011;133;49.626;9.680;2022-07-19T05:05:18;7.53;;;3.87;;
297;SDS011;133;49.626;9.680;2022-07-19T05:07:43;6.63;;;3.90;;
297;SDS011;133;49.626;9.680;2022-07-19T05:10:09;7.13;;;4.13;;
297;SDS011;133;49.626;9.680;2022-07-19T05:12:36;5.17;;;4.30;;
297;SDS011;133;49.626;9.680;2022-07-19T05:15:03;5.73;;;3.83;;
297;SDS011;133;49.626;9.680;2022-07-19T05:17:29;8.67;;;4.30;;
297;SDS011;133;49.626;9.680;2022-07-19T05:19:55;9.10;;;3.57;;
297;SDS011;133;49.626;9.680;2022-07-19T05:22:21;4.17;;;3.80;;
297;SDS011;133;49.626;9.680;2022-07-19T05:24:48;5.40;;;4.13;;
297;SDS011;133;49.626;9.680;2022-07-19T05:27:14;6.20;;;4.80;;
297;SDS011;133;49.626;9.680;2022-07-19T05:29:40;6.07;;;3.97;;
297;SDS011;133;49.626;9.680;2022-07-19T05:32:06;4.70;;;3.80;;
297;SDS011;133;49.626;9.680;2022-07-19T05:34:31;10.23;;;4.20;;
297;SDS011;133;49.626;9.680;2022-07-19T05:36:57;9.17;;;3.90;;
297;SDS011;133;49.626;9.680;2022-07-19T05:39:22;7.37;;;4.70;;
297;SDS011;133;49.626;9.680;2022-07-19T05:41:48;9.30;;;4.50;;
297;SDS011;133;49.626;9.680;2022-07-19T05:44:14;9.70;;;4.40;;
297;SDS011;133;49.626;9.680;2022-07-19T05:46:39;4.90;;;3.83;;
297;SDS011;133;49.626;9.680;2022-07-19T05:49:08;5.90;;;4.23;;
297;SDS011;133;49.626;9.680;2022-07-19T05:51:35;4.23;;;3.93;;
297;SDS011;133;49.626;9.680;2022-07-19T05:54:00;4.80;;;4.00;;
297;SDS011;133;49.626;9.680;2022-07-19T05:56:27;5.00;;;3.80;;
297;SDS011;133;49.626;9.680;2022-07-19T05:58:53;7.73;;;4.00;;
297;SDS011;133;49.626;9.680;2022-07-19T06:01:19;3.97;;;3.77;;
297;SDS011;133;49.626;9.680;2022-07-19T06:03:49;9.00;;;4.77;;
297;SDS011;133;49.626;9.680;2022-07-19T06:06:22;4.43;;;4.20;;
297;SDS011;133;49.626;9.680;2022-07-19T06:08:49;6.50;;;4.57;;
297;SDS011;133;49.626;9.680;2022-07-19T06:11:15;5.97;;;3.87;;
297;SDS011;133;49.626;9.680;2022-07-19T06:13:41;5.00;;;3.77;;
297;SDS011;133;49.626;9.680;2022-07-19T06:16:08;6.70;;;4.00;;
297;SDS011;133;49.626;9.680;2022-07-19T06:18:34;5.00;;;3.70;;
297;SDS011;133;49.626;9.680;2022-07-19T06:21:04;3.50;;;3.30;;
297;SDS011;133;49.626;9.680;2022-07-19T06:23:35;9.60;;;5.13;;
297;SDS011;133;49.626;9.680;2022-07-19T06:26:01;7.13;;;4.00;;
297;SDS011;133;49.626;9.680;2022-07-19T06:28:27;9.13;;;4.13;;
297;SDS011;133;49.626;9.680;2022-07-19T06:30:53;4.37;;;3.33;;
297;SDS011;133;49.626;9.680;2022-07-19T06:33:19;6.77;;;3.97;;
297;SDS011;133;49.626;9.680;2022-07-19T06:35:44;6.73;;;4.37;;
297;SDS011;133;49.626;9.680;2022-07-19T06:38:10;8.00;;;4.20;;
297;SDS011;133;49.626;9.680;2022-07-19T06:40:36;5.93;;;4.10;;
297;SDS011;133;49.626;9.680;2022-07-19T06:43:02;7.90;;;4.20;;
297;SDS011;133;49.626;9.680;2022-07-19T06:45:27;4.87;;;3.70;;
297;SDS011;133;49.626;9.680;2022-07-19T06:47:53;6.47;;;4.00;;
297;SDS011;133;49.626;9.680;2022-07-19T06:50:19;8.60;;;3.80;;
297;SDS011;133;49.626;9.680;2022-07-19T06:52:45;4.53;;;3.73;;
297;SDS011;133;49.626;9.680;2022-07-19T06:55:11;7.00;;;3.83;;
297;SDS011;133;49.626;9.680;2022-07-19T06:57:36;6.17;;;4.00;;
297;SDS011;133;49.626;9.680;2022-07-19T07:00:03;6.57;;;4.00;;
297;SDS011;133;49.626;9.680;2022-07-19T07:02:31;5.90;;;4.13;;
297;SDS011;133;49.626;9.680;2022-07-19T07:04:56;7.43;;;4.23;;
297;SDS011;133;49.626;9.680;2022-07-19T07:07:22;9.27;;;4.10;;
297;SDS011;133;49.626;9.680;2022-07-19T07:09:47;9.50;;;3.77;;
297;SDS011;133;49.626;9.680;2022-07-19T07:12:13;8.27;;;4.17;;
297;SDS011;133;49.626;9.680;2022-07-19T07:14:39;7.13;;;3.80;;
297;SDS011;133;49.626;9.680;2022-07-19T07:17:04;4.13;;;3.63;;
297;SDS011;133;49.626;9.680;2022-07-19T07:19:30;13.80;;;3.90;;
297;SDS011;133;49.626;9.680;2022-07-19T07:21:55;7.90;;;3.83;;
297;SDS011;133;49.626;9.680;2022-07-19T07:24:24;4.77;;;3.90;;
297;SDS011;133;49.626;9.680;2022-07-19T07:26:50;5.23;;;4.00;;
297;SDS011;133;49.626;9.680;2022-07-19T07:29:16;5.60;;;3.73;;
297;SDS011;133;49.626;9.680;2022-07-19T07:31:41;5.70;;;3.83;;
297;SDS011;133;49.626;9.680;2022-07-19T07:34:07;7.37;;;4.10;;
297;SDS011;133;49.626;9.680;2022-07-19T07:36:33;4.40;;;4.13;;
297;SDS011;133;49.626;9.680;2022-07-19T07:38:58;8.60;;;4.73;;
297;SDS011;133;49.626;9.680;2022-07-19T07:41:24;10.50;;;4.70;;
297;SDS011;133;49.626;9.680;2022-07-19T07:43:50;11.27;;;4.67;;
297;SDS011;133;49.626;9.680;2022-07-19T07:46:15;14.73;;;4.27;;
297;SDS011;133;49.626;9.680;2022-07-19T07:48:41;12.30;;;4.80;;
297;SDS011;133;49.626;9.680;2022-07-19T07:51:07;9.90;;;4.50;;
297;SDS011;133;49.626;9.680;2022-07-19T07:53:32;9.20;;;4.30;;
297;SDS011;133;49.626;9.680;2022-07-19T07:55:58;6.70;;;4.47;;
297;SDS011;133;49.626;9.680;2022-07-19T07:58:24;7.77;;;4.57;;
297;SDS011;133;49.626;9.680;2022-07-19T08:00:49;11.23;;;4.50;;
297;SDS011;133;49.626;9.680;2022-07-19T08:03:15;6.80;;;4.37;;
297;SDS011;133;49.626;9.680;2022-07-19T08:05:42;5.10;;;4.33;;
297;SDS011;133;49.626;9.680;2022-07-19T08:08:12;5.53;;;4.33;;
297;SDS011;133;49.626;9.680;2022-07-19T08:10:38;5.80;;;4.00;;
297;SDS011;133;49.626;9.680;2022-07-19T08:13:04;7.27;;;4.30;;
297;SDS011;133;49.626;9.680;2022-07-19T08:15:30;9.50;;;4.50;;
297;SDS011;133;49.626;9.680;2022-07-19T08:17:55;11.30;;;4.57;;
297;SDS011;133;49.626;9.680;2022-07-19T08:20:21;7.30;;;4.10;;
297;SDS011;133;49.626;9.680;2022-07-19T08:22:46;9.97;;;4.50;;
297;SDS011;133;49.626;9.680;2022-07-19T08:25:12;5.23;;;4.27;;
297;SDS011;133;49.626;9.680;2022-07-19T08:27:41;13.73;;;4.60;;
297;SDS011;133;49.626;9.680;2022-07-19T08:30:10;5.13;;;4.20;;
297;SDS011;133;49.626;9.680;2022-07-19T08:32:37;11.40;;;4.37;;
297;SDS011;133;49.626;9.680;2022-07-19T08:35:04;5.37;;;4.10;;
297;SDS011;133;49.626;9.680;2022-07-19T08:37:31;4.77;;;4.10;;
297;SDS011;133;49.626;9.680;2022-07-19T08:39:57;3.97;;;3.80;;
297;SDS011;133;49.626;9.680;2022-07-19T08:42:22;10.00;;;4.60;;
297;SDS011;133;49.626;9.680;2022-07-19T08:44:50;6.27;;;4.00;;
297;SDS011;133;49.626;9.680;2022-07-19T08:47:18;8.53;;;4.20;;
297;SDS011;133;49.626;9.680;2022-07-19T08:49:44;7.90;;;4.10;;
297;SDS011;133;49.626;9.680;2022-07-19T08:52:11;6.30;;;4.13;;
297;SDS011;133;49.626;9.680;2022-07-19T08:54:37;6.50;;;4.50;;
297;SDS011;133;49.626;9.680;2022-07-19T08:57:04;9.20;;;4.00;;
297;SDS011;133;49.626;9.680;2022-07-19T08:59:49;9.60;;;4.37;;
297;SDS011;133;49.626;9.680;2022-07-19T09:02:15;15.57;;;4.20;;
297;SDS011;133;49.626;9.680;2022-07-19T09:04:41;6.00;;;4.20;;
297;SDS011;133;49.626;9.680;2022-07-19T09:07:07;4.90;;;3.17;;
297;SDS011;133;49.626;9.680;2022-07-19T09:09:34;6.70;;;3.60;;
297;SDS011;133;49.626;9.680;2022-07-19T09:12:03;5.03;;;3.30;;
297;SDS011;133;49.626;9.680;2022-07-19T09:14:31;3.77;;;3.13;;
297;SDS011;133;49.626;9.680;2022-07-19T09:19:34;2.90;;;2.70;;
297;SDS011;133;49.626;9.680;2022-07-19T09:22:08;3.40;;;3.00;;
297;SDS011;133;49.626;9.680;2022-07-19T09:24:36;3.67;;;3.05;;
297;SDS011;133;49.626;9.680;2022-07-19T09:27:04;4.53;;;2.58;;
297;SDS011;133;49.626;9.680;2022-07-19T09:29:33;2.97;;;2.78;;
297;SDS011;133;49.626;9.680;2022-07-19T09:32:24;3.33;;;3.13;;
297;SDS011;133;49.626;9.680;2022-07-19T09:34:51;3.05;;;2.40;;
297;SDS011;133;49.626;9.680;2022-07-19T09:37:18;4.40;;;2.60;;
297;SDS011;133;49.626;9.680;2022-07-19T09:39:51;2.97;;;2.70;;
297;SDS011;133;49.626;9.680;2022-07-19T09:42:21;6.13;;;3.15;;
297;SDS011;133;49.626;9.680;2022-07-19T09:44:58;2.70;;;2.50;;
297;SDS011;133;49.626;9.680;2022-07-19T09:47:36;4.60;;;2.40;;
297;SDS011;133;49.626;9.680;2022-07-19T09:50:04;2.58;;;2.38;;
297;SDS011;133;49.626;9.680;2022-07-19T09:52:35;4.45;;;2.35;;
297;SDS011;133;49.626;9.680;2022-07-19T09:55:05;2.67;;;2.47;;
297;SDS011;133;49.626;9.680;2022-07-19T09:57:36;2.40;;;2.20;;
297;SDS011;133;49.626;9.680;2022-07-19T10:00:04;3.67;;;2.28;;
297;SDS011;133;49.626;9.680;2022-07-19T10:02:34;2.60;;;2.40;;
297;SDS011;133;49.626;9.680;2022-07-19T10:05:05;2.75;;;2.50;;
297;SDS011;133;49.626;9.680;2022-07-19T10:07:32;2.33;;;2.13;;
297;SDS011;133;49.626;9.680;2022-07-19T10:10:02;2.40;;;2.20;;
297;SDS011;133;49.626;9.680;2022-07-19T10:12:29;3.42;;;2.70;;
297;SDS011;133;49.626;9.680;2022-07-19T10:14:55;4.78;;;2.70;;
297;SDS011;133;49.626;9.680;2022-07-19T10:17:37;2.60;;;2.38;;
297;SDS011;133;49.626;9.680;2022-07-19T10:20:23;4.82;;;2.60;;
297;SDS011;133;49.626;9.680;2022-07-19T10:22:51;5.15;;;2.50;;
297;SDS011;133;49.626;9.680;2022-07-19T10:25:17;2.67;;;2.47;;
297;SDS011;133;49.626;9.680;2022-07-19T10:27:44;2.70;;;2.50;;
297;SDS011;133;49.626;9.680;2022-07-19T10:30:19;4.55;;;2.50;;
297;SDS011;133;49.626;9.680;2022-07-19T10:32:47;2.50;;;2.30;;
297;SDS011;133;49.626;9.680;2022-07-19T10:35:15;6.65;;;2.83;;
297;SDS011;133;49.626;9.680;2022-07-19T10:37:43;2.70;;;2.50;;
297;SDS011;133;49.626;9.680;2022-07-19T10:40:10;2.47;;;2.28;;
297;SDS011;133;49.626;9.680;2022-07-19T10:42:36;2.75;;;2.33;;
297;SDS011;133;49.626;9.680;2022-07-19T10:45:23;3.28;;;2.47;;
297;SDS011;133;49.626;9.680;2022-07-19T10:50:23;4.40;;;2.20;;
297;SDS011;133;49.626;9.680;2022-07-19T10:53:08;2.60;;;2.40;;
297;SDS011;133;49.626;9.680;2022-07-19T10:55:34;4.13;;;2.30;;
297;SDS011;133;49.626;9.680;2022-07-19T10:58:10;2.65;;;2.20;;
297;SDS011;133;49.626;9.680;2022-07-19T11:00:43;2.72;;;2.53;;
297;SDS011;133;49.626;9.680;2022-07-19T11:05:51;2.58;;;2.35;;
297;SDS011;133;49.626;9.680;2022-07-19T11:11:11;2.85;;;2.40;;
297;SDS011;133;49.626;9.680;2022-07-19T11:13:39;2.78;;;2.58;;
297;SDS011;133;49.626;9.680;2022-07-19T11:16:10;2.88;;;2.67;;
297;SDS011;133;49.626;9.680;2022-07-19T11:18:36;2.50;;;2.30;;
297;SDS011;133;49.626;9.680;2022-07-19T11:21:02;3.00;;;2.60;;
297;SDS011;133;49.626;9.680;2022-07-19T11:23:33;3.75;;;2.40;;
297;SDS011;133;49.626;9.680;2022-07-19T11:26:18;3.00;;;2.80;;
297;SDS011;133;49.626;9.680;2022-07-19T11:28:45;3.90;;;2.28;;
297;SDS011;133;49.626;9.680;2022-07-19T11:33:43;3.72;;;2.83;;
297;SDS011;133;49.626;9.680;2022-07-19T11:36:10;2.90;;;2.70;;
297;SDS011;133;49.626;9.680;2022-07-19T11:38:40;3.05;;;2.65;;
297;SDS011;133;49.626;9.680;2022-07-19T11:43:50;3.28;;;3.08;;
297;SDS011;133;49.626;9.680;2022-07-19T11:46:26;2.83;;;2.65;;
297;SDS011;133;49.626;9.680;2022-07-19T11:48:56;4.15;;;3.20;;
297;SDS011;133;49.626;9.680;2022-07-19T11:51:22;3.05;;;2.85;;
297;SDS011;133;49.626;9.680;2022-07-19T11:53:50;2.88;;;2.67;;
297;SDS011;133;49.626;9.680;2022-07-19T11:56:19;3.05;;;2.78;;
297;SDS011;133;49.626;9.680;2022-07-19T11:58:48;3.65;;;3.15;;
297;SDS011;133;49.626;9.680;2022-07-19T12:01:22;4.53;;;2.70;;
297;SDS011;133;49.626;9.680;2022-07-19T12:03:59;3.53;;;2.75;;
297;SDS011;133;49.626;9.680;2022-07-19T12:06:35;2.97;;;2.72;;
297;SDS011;133;49.626;9.680;2022-07-19T12:09:10;5.28;;;3.22;;
297;SDS011;133;49.626;9.680;2022-07-19T12:11:39;3.47;;;3.15;;
297;SDS011;133;49.626;9.680;2022-07-19T12:14:17;3.40;;;3.20;;
297;SDS011;133;49.626;9.680;2022-07-19T12:19:46;2.78;;;2.58;;
297;SDS011;133;49.626;9.680;2022-07-19T12:24:55;3.03;;;2.83;;
297;SDS011;133;49.626;9.680;2022-07-19T12:27:21;3.00;;;2.80;;
297;SDS011;133;49.626;9.680;2022-07-19T12:29:52;3.38;;;2.88;;
297;SDS011;133;49.626;9.680;2022-07-19T12:35:12;3.67;;;2.80;;
297;SDS011;133;49.626;9.680;2022-07-19T12:37:40;3.10;;;2.90;;
297;SDS011;133;49.626;9.680;2022-07-19T12:40:11;2.65;;;2.45;;
297;SDS011;133;49.626;9.680;2022-07-19T12:42:43;3.15;;;2.95;;
297;SDS011;133;49.626;9.680;2022-07-19T12:45:10;4.47;;;2.90;;
297;SDS011;133;49.626;9.680;2022-07-19T12:47:37;3.78;;;2.78;;
297;SDS011;133;49.626;9.680;2022-07-19T12:50:03;2.90;;;2.72;;
297;SDS011;133;49.626;9.680;2022-07-19T12:52:29;4.65;;;2.95;;
297;SDS011;133;49.626;9.680;2022-07-19T12:54:55;5.03;;;2.78;;
297;SDS011;133;49.626;9.680;2022-07-19T12:57:21;6.32;;;3.15;;
297;SDS011;133;49.626;9.680;2022-07-19T12:59:46;3.22;;;3.05;;
297;SDS011;133;49.626;9.680;2022-07-19T13:02:16;3.40;;;3.00;;
297;SDS011;133;49.626;9.680;2022-07-19T13:04:43;3.35;;;3.13;;
297;SDS011;133;49.626;9.680;2022-07-19T13:07:10;3.10;;;2.90;;
297;SDS011;133;49.626;9.680;2022-07-19T13:09:37;5.45;;;3.30;;
297;SDS011;133;49.626;9.680;2022-07-19T13:12:04;3.40;;;3.20;;
297;SDS011;133;49.626;9.680;2022-07-19T13:14:31;3.70;;;3.20;;
297;SDS011;133;49.626;9.680;2022-07-19T13:17:01;4.90;;;2.92;;
297;SDS011;133;49.626;9.680;2022-07-19T13:19:28;4.65;;;3.47;;
297;SDS011;133;49.626;9.680;2022-07-19T13:21:54;3.33;;;3.13;;
297;SDS011;133;49.626;9.680;2022-07-19T13:24:20;3.20;;;3.00;;
297;SDS011;133;49.626;9.680;2022-07-19T13:26:46;3.13;;;2.95;;
297;SDS011;133;49.626;9.680;2022-07-19T13:29:13;7.30;;;3.50;;
297;SDS011;133;49.626;9.680;2022-07-19T13:31:39;3.42;;;3.22;;
297;SDS011;133;49.626;9.680;2022-07-19T13:34:05;3.72;;;3.47;;
297;SDS011;133;49.626;9.680;2022-07-19T13:36:30;3.13;;;2.92;;
297;SDS011;133;49.626;9.680;2022-07-19T13:38:56;4.50;;;3.30;;
297;SDS011;133;49.626;9.680;2022-07-19T13:41:21;6.93;;;3.72;;
297;SDS011;133;49.626;9.680;2022-07-19T13:43:47;3.05;;;2.85;;
297;SDS011;133;49.626;9.680;2022-07-19T13:46:13;5.60;;;4.25;;
297;SDS011;133;49.626;9.680;2022-07-19T13:48:39;3.95;;;3.10;;
297;SDS011;133;49.626;9.680;2022-07-19T13:51:06;6.75;;;3.70;;
297;SDS011;133;49.626;9.680;2022-07-19T13:53:32;3.92;;;3.20;;
297;SDS011;133;49.626;9.680;2022-07-19T13:55:58;3.65;;;3.47;;
297;SDS011;133;49.626;9.680;2022-07-19T13:58:23;3.72;;;3.35;;
297;SDS011;133;49.626;9.680;2022-07-19T14:00:49;5.25;;;3.58;;
297;SDS011;133;49.626;9.680;2022-07-19T14:03:18;4.97;;;4.18;;
297;SDS011;133;49.626;9.680;2022-07-19T14:05:47;8.02;;;4.88;;
297;SDS011;133;49.626;9.680;2022-07-19T14:08:14;3.58;;;3.25;;
297;SDS011;133;49.626;9.680;2022-07-19T14:10:40;4.45;;;3.53;;
297;SDS011;133;49.626;9.680;2022-07-19T14:13:06;3.60;;;3.40;;
297;SDS011;133;49.626;9.680;2022-07-19T14:15:32;7.28;;;3.47;;
297;SDS011;133;49.626;9.680;2022-07-19T14:17:59;5.90;;;3.78;;
297;SDS011;133;49.626;9.680;2022-07-19T14:20:25;5.32;;;3.70;;
297;SDS011;133;49.626;9.680;2022-07-19T14:22:51;4.53;;;3.67;;
297;SDS011;133;49.626;9.680;2022-07-19T14:25:18;3.65;;;3.53;;
297;SDS011;133;49.626;9.680;2022-07-19T14:27:44;4.75;;;3.60;;
297;SDS011;133;49.626;9.680;2022-07-19T14:30:10;4.43;;;4.18;;
297;SDS011;133;49.626;9.680;2022-07-19T14:32:35;3.70;;;3.50;;
297;SDS011;133;49.626;9.680;2022-07-19T14:35:01;5.78;;;3.58;;
297;SDS011;133;49.626;9.680;2022-07-19T14:37:27;10.98;;;4.25;;
297;SDS011;133;49.626;9.680;2022-07-19T14:39:53;10.02;;;3.90;;
297;SDS011;133;49.626;9.680;2022-07-19T14:42:19;5.93;;;3.67;;
297;SDS011;133;49.626;9.680;2022-07-19T14:44:49;4.55;;;3.60;;
297;SDS011;133;49.626;9.680;2022-07-19T14:47:15;4.50;;;3.75;;
297;SDS011;133;49.626;9.680;2022-07-19T14:49:43;5.80;;;3.80;;
297;SDS011;133;49.626;9.680;2022-07-19T14:52:13;5.28;;;3.95;;
297;SDS011;133;49.626;9.680;2022-07-19T14:54:39;5.13;;;3.70;;
297;SDS011;133;49.626;9.680;2022-07-19T14:57:05;4.90;;;4.05;;
297;SDS011;133;49.626;9.680;2022-07-19T14:59:31;4.05;;;3.63;;
297;SDS011;133;49.626;9.680;2022-07-19T15:01:59;9.73;;;3.95;;
297;SDS011;133;49.626;9.680;2022-07-19T15:04:25;4.38;;;3.90;;
297;SDS011;133;49.626;9.680;2022-07-19T15:06:52;6.57;;;4.40;;
297;SDS011;133;49.626;9.680;2022-07-19T15:09:17;6.63;;;3.90;;
297;SDS011;133;49.626;9.680;2022-07-19T15:11:43;3.80;;;3.53;;
297;SDS011;133;49.626;9.680;2022-07-19T15:14:10;4.30;;;4.00;;
297;SDS011;133;49.626;9.680;2022-07-19T15:16:36;4.60;;;4.30;;
297;SDS011;133;49.626;9.680;2022-07-19T15:19:01;4.80;;;4.00;;
297;SDS011;133;49.626;9.680;2022-07-19T15:21:27;5.72;;;3.83;;
297;SDS011;133;49.626;9.680;2022-07-19T15:23:54;5.03;;;4.10;;
297;SDS011;133;49.626;9.680;2022-07-19T15:26:20;4.25;;;3.97;;
297;SDS011;133;49.626;9.680;2022-07-19T15:28:46;4.05;;;3.85;;
297;SDS011;133;49.626;9.680;2022-07-19T15:31:15;4.55;;;3.92;;
297;SDS011;133;49.626;9.680;2022-07-19T15:33:48;4.43;;;3.88;;
297;SDS011;133;49.626;9.680;2022-07-19T15:36:20;4.75;;;3.83;;
297;SDS011;133;49.626;9.680;2022-07-19T15:38:49;5.07;;;3.90;;
297;SDS011;133;49.626;9.680;2022-07-19T15:41:21;4.47;;;4.18;;
297;SDS011;133;49.626;9.680;2022-07-19T15:43:49;4.40;;;3.75;;
297;SDS011;133;49.626;9.680;2022-07-19T15:46:18;4.82;;;3.42;;
297;SDS011;133;49.626;9.680;2022-07-19T15:48:43;4.28;;;3.70;;
297;SDS011;133;49.626;9.680;2022-07-19T15:51:10;6.05;;;3.97;;
297;SDS011;133;49.626;9.680;2022-07-19T15:53:36;4.15;;;3.70;;
297;SDS011;133;49.626;9.680;2022-07-19T15:56:03;5.47;;;3.72;;
297;SDS011;133;49.626;9.680;2022-07-19T15:58:30;3.90;;;3.75;;
297;SDS011;133;49.626;9.680;2022-07-19T16:00:55;4.18;;;3.95;;
297;SDS011;133;49.626;9.680;2022-07-19T16:03:21;3.67;;;3.47;;
297;SDS011;133;49.626;9.680;2022-07-19T16:05:47;4.43;;;3.58;;
297;SDS011;133;49.626;9.680;2022-07-19T16:08:13;4.28;;;3.85;;